createdAt,value
2023-03-17T00:00:50.383Z,54.70
2023-03-17T00:03:32.380Z,51.43
2023-03-17T00:06:00.669Z,51.13
2023-03-17T00:08:36.443Z,48.37
2023-03-17T00:11:08.063Z,44.10
2023-03-17T00:13:36.651Z,41.43
2023-03-17T00:16:08.029Z,42.93
2023-03-17T00:18:38.212Z,37.63
2023-03-17T00:21:12.783Z,33.93
2023-03-17T00:23:42.469Z,35.47
2023-03-17T00:26:11.236Z,49.87
2023-03-17T00:28:40.914Z,35.27
2023-03-17T00:31:23.963Z,34.80
2023-03-17T00:33:58.857Z,28.53
2023-03-17T00:36:29.829Z,25.73
2023-03-17T00:38:58.783Z,27.60
2023-03-17T00:41:27.685Z,25.03
2023-03-17T00:43:59.098Z,30.50
2023-03-17T00:46:36.222Z,24.47
2023-03-17T00:49:21.546Z,24.53
2023-03-17T00:51:51.451Z,27.77
2023-03-17T00:54:21.897Z,28.50
2023-03-17T00:56:52.297Z,32.77
2023-03-17T00:59:26.441Z,26.60
2023-03-17T01:01:55.738Z,26.73
2023-03-17T01:04:25.815Z,25.30
2023-03-17T01:06:54.360Z,24.80
2023-03-17T01:09:26.693Z,25.10
2023-03-17T01:11:55.956Z,21.20
2023-03-17T01:14:26.757Z,22.03
2023-03-17T01:16:55.647Z,20.37
2023-03-17T01:19:29.595Z,21.40
2023-03-17T01:21:58.333Z,28.90
2023-03-17T01:24:29.106Z,23.80
2023-03-17T01:26:57.644Z,21.70
2023-03-17T01:29:26.006Z,21.63
2023-03-17T01:31:54.229Z,27.27
2023-03-17T01:34:22.824Z,34.07
2023-03-17T01:36:51.289Z,23.70
2023-03-17T01:39:21.362Z,26.00
2023-03-17T01:42:09.396Z,26.00
2023-03-17T01:45:03.739Z,37.30
2023-03-17T01:47:32.433Z,24.33
2023-03-17T01:50:10.253Z,30.07
2023-03-17T01:52:40.064Z,30.87
2023-03-17T01:55:29.441Z,27.23
2023-03-17T01:57:58.000Z,37.13
2023-03-17T02:00:27.017Z,34.33
2023-03-17T02:02:56.937Z,27.53
2023-03-17T02:05:28.605Z,29.80
2023-03-17T02:07:57.310Z,26.40
2023-03-17T02:10:30.180Z,26.10
2023-03-17T02:13:01.633Z,29.07
2023-03-17T02:15:47.405Z,25.57
2023-03-17T02:18:18.097Z,26.43
2023-03-17T02:20:55.737Z,28.53
2023-03-17T02:23:26.882Z,25.13
2023-03-17T02:25:55.825Z,26.17
2023-03-17T02:28:27.580Z,26.23
2023-03-17T02:30:57.820Z,26.63
2023-03-17T02:33:26.125Z,29.50
2023-03-17T02:35:57.849Z,28.90
2023-03-17T02:38:26.448Z,31.87
2023-03-17T02:40:54.950Z,31.10
2023-03-17T02:43:23.215Z,39.07
2023-03-17T02:45:51.437Z,28.77
2023-03-17T02:48:20.554Z,32.33
2023-03-17T02:50:48.625Z,34.93
2023-03-17T02:53:18.651Z,38.77
2023-03-17T02:55:46.940Z,38.60
2023-03-17T02:58:15.321Z,34.73
2023-03-17T03:00:44.001Z,29.80
2023-03-17T03:03:12.460Z,34.73
2023-03-17T03:05:40.921Z,32.23
2023-03-17T03:08:10.605Z,38.63
2023-03-17T03:10:38.715Z,35.37
2023-03-17T03:13:09.664Z,30.03
2023-03-17T03:15:44.228Z,37.33
2023-03-17T03:18:13.611Z,42.23
2023-03-17T03:20:45.026Z,40.00
2023-03-17T03:23:51.473Z,37.03
2023-03-17T03:26:20.193Z,38.57
2023-03-17T03:28:50.060Z,43.50
2023-03-17T03:31:18.302Z,53.43
2023-03-17T03:33:47.004Z,41.53
2023-03-17T03:36:15.288Z,48.53
2023-03-17T03:38:45.744Z,43.57
2023-03-17T03:41:14.506Z,43.17
2023-03-17T03:43:47.788Z,60.70
2023-03-17T03:46:16.396Z,53.07
2023-03-17T03:48:46.496Z,50.10
2023-03-17T03:51:15.377Z,42.97
2023-03-17T03:53:44.206Z,45.70
2023-03-17T03:56:12.608Z,43.27
2023-03-17T03:58:42.242Z,48.83
2023-03-17T04:01:12.753Z,47.10
2023-03-17T04:03:42.987Z,38.07
2023-03-17T04:06:11.839Z,41.33
2023-03-17T04:08:40.161Z,33.60
2023-03-17T04:11:09.268Z,32.47
2023-03-17T04:13:37.403Z,49.40
2023-03-17T04:16:05.805Z,35.07
2023-03-17T04:18:33.898Z,32.60
2023-03-17T04:21:01.996Z,36.27
2023-03-17T04:23:31.792Z,34.37
2023-03-17T04:26:00.336Z,34.67
2023-03-17T04:28:32.723Z,37.97
2023-03-17T04:31:00.879Z,32.63
2023-03-17T04:33:29.135Z,30.33
2023-03-17T04:35:57.353Z,33.10
2023-03-17T04:38:29.776Z,31.80
2023-03-17T04:41:01.154Z,28.03
2023-03-17T04:43:31.842Z,28.03
2023-03-17T04:46:06.325Z,32.87
2023-03-17T04:48:35.602Z,30.37
2023-03-17T04:51:03.554Z,27.50
2023-03-17T04:53:31.912Z,35.30
2023-03-17T04:56:00.436Z,30.83
2023-03-17T04:58:31.871Z,34.53
2023-03-17T05:01:00.849Z,30.90
2023-03-17T05:03:30.668Z,31.87
2023-03-17T05:06:02.327Z,29.60
2023-03-17T05:08:37.100Z,31.63
2023-03-17T05:11:05.601Z,33.10
2023-03-17T05:13:36.272Z,31.67
2023-03-17T05:16:05.147Z,38.57
2023-03-17T05:18:37.530Z,38.20
2023-03-17T05:21:08.093Z,39.10
2023-03-17T05:23:36.436Z,42.33
2023-03-17T05:26:06.807Z,41.83
2023-03-17T05:28:35.507Z,43.43
2023-03-17T05:31:04.163Z,36.13
2023-03-17T05:33:32.410Z,37.43
2023-03-17T05:36:04.028Z,48.27
2023-03-17T05:38:34.220Z,41.43
2023-03-17T05:41:07.977Z,39.10
2023-03-17T05:43:37.684Z,36.97
2023-03-17T05:46:10.993Z,36.53
2023-03-17T05:48:42.486Z,29.20
2023-03-17T05:51:10.927Z,35.50
2023-03-17T05:53:42.749Z,40.17
2023-03-17T05:56:11.148Z,37.53
2023-03-17T05:58:40.307Z,40.87
2023-03-17T06:01:09.074Z,32.13
2023-03-17T06:03:39.074Z,39.83
2023-03-17T06:06:07.285Z,45.77
2023-03-17T06:08:37.248Z,38.13
2023-03-17T06:11:08.822Z,33.07
2023-03-17T06:13:38.658Z,34.00
2023-03-17T06:16:10.054Z,30.53
2023-03-17T06:18:40.197Z,35.47
2023-03-17T06:21:08.486Z,33.40
2023-03-17T06:23:36.992Z,42.87
2023-03-17T06:26:05.669Z,33.87
2023-03-17T06:28:36.220Z,30.77
2023-03-17T06:31:07.151Z,30.03
2023-03-17T06:33:35.894Z,32.90
2023-03-17T06:36:04.786Z,28.27
2023-03-17T06:38:34.874Z,29.43
2023-03-17T06:41:03.720Z,37.57
2023-03-17T06:43:33.060Z,33.97
2023-03-17T06:46:05.116Z,37.40
2023-03-17T06:48:35.621Z,44.13
2023-03-17T06:51:04.626Z,37.30
2023-03-17T06:53:33.095Z,30.73
2023-03-17T06:56:01.376Z,41.27
2023-03-17T06:58:32.723Z,33.40
2023-03-17T07:01:04.542Z,31.00
2023-03-17T07:03:33.086Z,32.63
2023-03-17T07:06:04.285Z,36.23
2023-03-17T07:08:32.351Z,33.57
2023-03-17T07:11:06.395Z,34.73
2023-03-17T07:13:37.586Z,32.17
2023-03-17T07:16:06.139Z,37.20
2023-03-17T07:18:39.875Z,26.60
2023-03-17T07:21:08.373Z,36.57
2023-03-17T07:23:36.786Z,25.80
2023-03-17T07:26:05.136Z,37.43
2023-03-17T07:28:34.708Z,38.27
2023-03-17T07:31:14.566Z,29.47
2023-03-17T07:33:42.910Z,34.03
2023-03-17T07:36:11.318Z,34.60
2023-03-17T07:38:43.610Z,33.17
2023-03-17T07:41:11.960Z,34.17
2023-03-17T07:43:42.123Z,32.70
2023-03-17T07:46:10.036Z,31.47
2023-03-17T07:48:42.640Z,36.47
2023-03-17T07:51:16.474Z,29.33
2023-03-17T07:53:45.527Z,31.27
2023-03-17T07:56:14.560Z,35.57
2023-03-17T07:58:42.811Z,32.20
2023-03-17T08:01:10.847Z,29.40
2023-03-17T08:03:41.382Z,34.50
2023-03-17T08:06:09.682Z,33.97
2023-03-17T08:08:37.998Z,33.97
2023-03-17T08:11:06.328Z,33.30
2023-03-17T08:13:35.104Z,33.57
2023-03-17T08:16:07.587Z,33.10
2023-03-17T08:18:36.851Z,35.73
2023-03-17T08:21:08.376Z,35.53
2023-03-17T08:23:38.534Z,33.93
2023-03-17T08:26:06.886Z,37.70
2023-03-17T08:28:40.093Z,34.47
2023-03-17T08:31:13.884Z,35.43
2023-03-17T08:33:42.743Z,36.87
2023-03-17T08:36:13.842Z,34.97
2023-03-17T08:38:43.129Z,34.70
2023-03-17T08:41:23.159Z,35.53
2023-03-17T08:43:52.117Z,33.50
2023-03-17T08:46:26.601Z,30.57
2023-03-17T08:48:59.335Z,25.93
2023-03-17T08:51:31.289Z,26.43
2023-03-17T08:54:01.363Z,30.57
2023-03-17T08:56:33.057Z,28.00
2023-03-17T08:59:01.404Z,23.53
2023-03-17T09:01:29.981Z,29.70
2023-03-17T09:03:58.836Z,28.37
2023-03-17T09:06:27.313Z,26.73
2023-03-17T09:08:58.077Z,28.63
2023-03-17T09:11:28.561Z,25.83
2023-03-17T09:14:00.543Z,29.57
2023-03-17T09:16:34.344Z,29.70
2023-03-17T09:19:04.493Z,25.33
2023-03-17T09:21:32.928Z,26.20
2023-03-17T09:24:02.662Z,24.37
2023-03-17T09:26:32.347Z,24.40
2023-03-17T09:29:02.526Z,23.07
2023-03-17T09:31:32.926Z,26.33
2023-03-17T09:34:08.512Z,25.37
2023-03-17T09:36:39.877Z,23.07
2023-03-17T09:39:09.215Z,23.97
2023-03-17T09:42:02.707Z,27.20
2023-03-17T09:44:56.241Z,23.93
2023-03-17T09:47:32.976Z,25.93
2023-03-17T09:50:06.120Z,26.80
2023-03-17T09:52:37.125Z,24.67
2023-03-17T09:55:08.903Z,23.93
2023-03-17T09:57:40.890Z,22.47
2023-03-17T10:00:14.887Z,21.93
2023-03-17T10:02:44.152Z,23.83
2023-03-17T10:05:28.644Z,22.60
2023-03-17T10:08:45.046Z,23.93
2023-03-17T10:11:26.762Z,25.30
2023-03-17T10:14:11.555Z,24.60
2023-03-17T10:16:49.136Z,25.23
2023-03-17T10:19:22.303Z,22.67
2023-03-17T10:22:46.560Z,22.80
2023-03-17T10:25:29.795Z,23.33
2023-03-17T10:28:03.884Z,20.77
2023-03-17T10:30:36.676Z,19.67
2023-03-17T10:33:09.414Z,20.97
2023-03-17T10:35:41.636Z,19.83
2023-03-17T10:38:21.805Z,21.67
2023-03-17T10:41:08.149Z,21.50
2023-03-17T10:43:44.991Z,20.30
2023-03-17T10:46:26.871Z,23.60
2023-03-17T10:48:58.902Z,23.03
2023-03-17T10:51:35.937Z,18.90
2023-03-17T10:54:10.472Z,21.37
2023-03-17T10:56:42.728Z,21.20
2023-03-17T10:59:22.267Z,22.97
2023-03-17T11:01:56.717Z,19.87
2023-03-17T11:04:32.778Z,19.63
2023-03-17T11:07:23.384Z,20.20
2023-03-17T11:09:52.889Z,20.57
2023-03-17T11:12:27.686Z,20.80
2023-03-17T11:15:08.157Z,20.77
2023-03-17T11:17:59.588Z,20.03
2023-03-17T11:20:45.894Z,21.03
2023-03-17T11:23:44.198Z,24.43
2023-03-17T11:26:27.173Z,23.63
2023-03-17T11:29:25.039Z,21.70
2023-03-17T11:32:11.993Z,20.63
2023-03-17T11:34:48.822Z,21.97
2023-03-17T11:37:26.703Z,22.87
2023-03-17T11:40:22.758Z,21.00
2023-03-17T11:43:29.397Z,16.20
2023-03-17T11:46:08.145Z,18.90
2023-03-17T11:48:58.169Z,17.27
2023-03-17T11:51:30.665Z,17.47
2023-03-17T11:54:25.277Z,18.30
2023-03-17T11:57:02.205Z,18.40
2023-03-17T11:59:42.379Z,17.83
2023-03-17T12:02:23.732Z,16.57
2023-03-17T12:04:56.141Z,16.03
2023-03-17T12:07:29.203Z,15.30
2023-03-17T12:10:52.448Z,16.70
2023-03-17T12:13:37.530Z,16.13
2023-03-17T12:16:12.206Z,16.73
2023-03-17T12:19:08.737Z,15.87
2023-03-17T12:21:46.054Z,15.40
2023-03-17T12:24:21.999Z,15.57
2023-03-17T12:26:57.770Z,17.40
2023-03-17T12:29:41.387Z,17.23
2023-03-17T12:32:18.622Z,17.17
2023-03-17T12:34:57.480Z,17.37
2023-03-17T12:37:30.615Z,17.60
2023-03-17T12:40:05.621Z,18.13
2023-03-17T12:42:52.708Z,16.40
2023-03-17T12:45:41.724Z,17.70
2023-03-17T12:48:34.428Z,16.50
2023-03-17T12:51:40.299Z,19.57
2023-03-17T12:54:30.102Z,16.53
2023-03-17T12:57:24.500Z,17.20
2023-03-17T13:00:01.487Z,17.43
2023-03-17T13:02:30.021Z,17.60
2023-03-17T13:05:01.197Z,17.17
2023-03-17T13:07:38.412Z,19.57
2023-03-17T13:10:14.084Z,21.27
2023-03-17T13:12:44.919Z,22.67
2023-03-17T13:15:28.946Z,22.63
2023-03-17T13:18:15.791Z,25.00
2023-03-17T13:20:57.349Z,23.53
2023-03-17T13:23:38.590Z,25.17
2023-03-17T13:26:07.040Z,25.43
2023-03-17T13:28:36.147Z,23.57
2023-03-17T13:31:15.028Z,26.70
2023-03-17T13:33:54.334Z,25.13
2023-03-17T13:36:47.319Z,24.77
2023-03-17T13:39:40.645Z,24.97
2023-03-17T13:42:24.129Z,25.20
2023-03-17T13:45:16.595Z,24.67
2023-03-17T13:47:46.334Z,27.83
2023-03-17T13:50:24.511Z,27.00
2023-03-17T13:53:05.694Z,25.63
2023-03-17T13:55:44.660Z,28.37
2023-03-17T13:58:32.672Z,29.53
2023-03-17T14:01:04.255Z,27.63
2023-03-17T14:03:41.673Z,27.47
2023-03-17T14:06:12.666Z,28.93
2023-03-17T14:08:51.730Z,31.77
2023-03-17T14:11:41.604Z,32.03
2023-03-17T14:14:45.183Z,28.10
2023-03-17T14:17:19.973Z,27.77
2023-03-17T14:20:08.501Z,27.23
2023-03-17T14:22:47.636Z,28.33
2023-03-17T14:25:24.809Z,28.03
2023-03-17T14:27:57.447Z,28.50
2023-03-17T14:30:31.061Z,29.17
2023-03-17T14:33:25.250Z,29.63
2023-03-17T14:35:54.798Z,29.40
2023-03-17T14:38:33.727Z,31.27
2023-03-17T14:41:07.535Z,30.10
2023-03-17T14:43:37.044Z,29.07
2023-03-17T14:46:08.055Z,29.47
2023-03-17T14:48:38.209Z,33.80
2023-03-17T14:51:39.513Z,33.03
2023-03-17T14:54:21.467Z,35.17
2023-03-17T14:57:05.490Z,37.43
2023-03-17T14:59:41.031Z,34.17
2023-03-17T15:02:38.272Z,28.87
2023-03-17T15:05:29.717Z,31.90
2023-03-17T15:07:58.173Z,26.40
2023-03-17T15:10:31.503Z,29.67
2023-03-17T15:13:02.342Z,20.20
2023-03-17T15:15:33.298Z,22.57
2023-03-17T15:18:06.196Z,22.10
2023-03-17T15:20:35.946Z,21.20
2023-03-17T15:23:14.072Z,18.00
2023-03-17T15:25:44.673Z,18.73
2023-03-17T15:28:21.141Z,19.90
2023-03-17T15:30:52.802Z,21.57
2023-03-17T15:33:22.945Z,21.97
2023-03-17T15:35:51.452Z,24.57
2023-03-17T15:38:20.071Z,20.73
2023-03-17T15:40:48.190Z,25.27
2023-03-17T15:43:18.842Z,23.67
2023-03-17T15:45:52.521Z,22.43
2023-03-17T15:48:35.377Z,25.23
2023-03-17T15:51:04.826Z,22.77
2023-03-17T15:53:32.855Z,23.27
2023-03-17T15:56:01.981Z,21.57
2023-03-17T15:58:30.345Z,24.77
2023-03-17T16:01:00.376Z,23.30
2023-03-17T16:03:37.369Z,21.50
2023-03-17T16:06:11.383Z,21.20
2023-03-17T16:08:40.947Z,21.80
2023-03-17T16:11:28.681Z,18.43
2023-03-17T16:14:03.159Z,15.80
2023-03-17T16:16:37.583Z,16.37
2023-03-17T16:19:06.886Z,17.80
2023-03-17T16:21:36.406Z,19.23
2023-03-17T16:24:04.882Z,15.67
2023-03-17T16:26:36.837Z,16.20
2023-03-17T16:29:15.037Z,19.13
2023-03-17T16:31:46.154Z,17.93
2023-03-17T16:34:17.084Z,18.27
2023-03-17T16:36:46.290Z,21.83
2023-03-17T16:39:20.123Z,25.37
2023-03-17T16:41:53.984Z,21.70
2023-03-17T16:44:24.212Z,33.63
2023-03-17T16:46:54.380Z,24.30
2023-03-17T16:49:23.261Z,25.23
2023-03-17T16:51:53.593Z,28.73
2023-03-17T16:54:23.793Z,35.63
2023-03-17T16:56:52.341Z,33.17
2023-03-17T16:59:24.811Z,38.77
2023-03-17T17:01:55.217Z,30.30
2023-03-17T17:04:24.689Z,32.37
2023-03-17T17:06:53.044Z,38.53
2023-03-17T17:09:21.007Z,33.60
2023-03-17T17:11:49.076Z,38.27
2023-03-17T17:14:17.588Z,38.67
2023-03-17T17:16:47.280Z,40.13
2023-03-17T17:19:17.393Z,38.20
2023-03-17T17:21:46.091Z,37.70
2023-03-17T17:24:15.923Z,39.20
2023-03-17T17:26:45.104Z,37.97
2023-03-17T17:29:13.296Z,37.03
2023-03-17T17:31:44.233Z,52.73
2023-03-17T17:34:13.616Z,34.60
2023-03-17T17:36:44.967Z,44.83
2023-03-17T17:39:14.843Z,44.43
2023-03-17T17:41:44.622Z,58.30
2023-03-17T17:44:14.198Z,48.10
2023-03-17T17:46:46.030Z,51.50
2023-03-17T17:49:14.820Z,51.07
2023-03-17T17:51:48.790Z,46.33
2023-03-17T17:54:16.960Z,49.40
2023-03-17T17:56:47.106Z,48.37
2023-03-17T17:59:15.741Z,40.13
2023-03-17T18:01:44.047Z,46.47
2023-03-17T18:04:13.206Z,48.87
2023-03-17T18:06:43.527Z,48.97
2023-03-17T18:09:11.834Z,44.60
2023-03-17T18:11:41.846Z,46.43
2023-03-17T18:14:14.008Z,45.83
2023-03-17T18:16:42.602Z,53.00
2023-03-17T18:19:13.615Z,51.47
2023-03-17T18:21:48.592Z,46.77
2023-03-17T18:24:21.552Z,47.60
2023-03-17T18:26:49.769Z,45.53
2023-03-17T18:29:18.001Z,55.07
2023-03-17T18:31:49.363Z,57.80
2023-03-17T18:34:24.247Z,54.73
2023-03-17T18:36:53.213Z,58.70
2023-03-17T18:39:21.709Z,60.43
2023-03-17T18:41:54.430Z,59.40
2023-03-17T18:44:25.397Z,56.50
2023-03-17T18:46:53.547Z,49.13
2023-03-17T18:49:28.763Z,56.33
2023-03-17T18:51:57.842Z,52.83
2023-03-17T18:54:28.141Z,54.27
2023-03-17T18:56:59.831Z,56.30
2023-03-17T18:59:28.468Z,55.10
2023-03-17T19:02:02.325Z,58.67
2023-03-17T19:04:31.017Z,63.47
2023-03-17T19:06:59.380Z,60.83
2023-03-17T19:09:28.221Z,53.17
2023-03-17T19:11:57.995Z,55.17
2023-03-17T19:14:26.434Z,69.33
2023-03-17T19:16:54.982Z,57.47
2023-03-17T19:19:27.874Z,57.33
2023-03-17T19:21:56.074Z,52.20
2023-03-17T19:24:25.462Z,57.90
2023-03-17T19:26:54.193Z,54.87
2023-03-17T19:29:22.954Z,63.40
2023-03-17T19:31:51.291Z,65.37
2023-03-17T19:34:19.586Z,60.90
2023-03-17T19:36:47.760Z,58.63
2023-03-17T19:39:17.357Z,58.03
2023-03-17T19:41:47.744Z,57.93
2023-03-17T19:44:22.620Z,57.70
2023-03-17T19:46:50.911Z,57.10
2023-03-17T19:49:20.756Z,61.47
2023-03-17T19:51:50.041Z,63.10
2023-03-17T19:54:23.536Z,55.27
2023-03-17T19:56:52.182Z,50.83
2023-03-17T19:59:23.341Z,48.70
2023-03-17T20:01:54.013Z,54.20
2023-03-17T20:04:23.497Z,49.97
2023-03-17T20:06:56.055Z,49.57
2023-03-17T20:09:26.662Z,48.30
2023-03-17T20:11:56.851Z,48.00
2023-03-17T20:14:26.069Z,44.47
2023-03-17T20:16:54.375Z,42.07
2023-03-17T20:19:22.880Z,49.10
2023-03-17T20:21:53.828Z,42.77
2023-03-17T20:24:22.743Z,33.53
2023-03-17T20:26:52.028Z,34.13
2023-03-17T20:29:24.632Z,37.87
2023-03-17T20:31:52.856Z,29.17
2023-03-17T20:34:22.271Z,32.27
2023-03-17T20:36:51.811Z,26.77
2023-03-17T20:39:22.692Z,31.77
2023-03-17T20:41:52.106Z,27.10
2023-03-17T20:44:21.860Z,30.40
2023-03-17T20:46:58.978Z,33.80
2023-03-17T20:49:30.440Z,34.30
2023-03-17T20:52:00.093Z,27.63
2023-03-17T20:54:29.195Z,32.10
2023-03-17T20:56:57.569Z,29.93
2023-03-17T20:59:26.464Z,27.73
2023-03-17T21:01:55.080Z,27.23
2023-03-17T21:04:24.564Z,29.27
2023-03-17T21:06:53.707Z,27.67
2023-03-17T21:09:21.900Z,29.77
2023-03-17T21:11:50.133Z,27.47
2023-03-17T21:14:21.806Z,29.63
2023-03-17T21:16:50.820Z,27.00
2023-03-17T21:19:20.021Z,26.00
2023-03-17T21:21:48.874Z,26.77
2023-03-17T21:24:34.717Z,26.73
2023-03-17T21:27:05.908Z,29.23
2023-03-17T21:29:35.350Z,25.77
2023-03-17T21:32:07.641Z,26.83
2023-03-17T21:34:37.059Z,28.07
2023-03-17T21:37:05.592Z,26.93
2023-03-17T21:39:36.577Z,27.20
2023-03-17T21:42:08.453Z,23.03
2023-03-17T21:44:36.853Z,25.20
2023-03-17T21:47:05.144Z,23.90
2023-03-17T21:49:33.784Z,23.40
2023-03-17T21:52:02.615Z,26.97
2023-03-17T21:54:31.008Z,23.60
2023-03-17T21:57:04.933Z,24.73
2023-03-17T21:59:34.729Z,23.57
2023-03-17T22:02:03.945Z,22.90
2023-03-17T22:04:33.142Z,24.63
2023-03-17T22:07:03.532Z,23.53
2023-03-17T22:09:31.947Z,24.53
2023-03-17T22:12:01.087Z,20.20
2023-03-17T22:14:30.830Z,22.07
2023-03-17T22:17:00.943Z,23.20
2023-03-17T22:19:29.372Z,23.00
2023-03-17T22:21:59.909Z,23.60
2023-03-17T22:24:28.644Z,26.47
2023-03-17T22:26:59.674Z,24.63
2023-03-17T22:29:31.759Z,23.83
2023-03-17T22:32:00.095Z,25.83
2023-03-17T22:34:28.781Z,23.60
2023-03-17T22:36:57.379Z,22.53
2023-03-17T22:39:26.102Z,23.93
2023-03-17T22:42:18.971Z,24.50
2023-03-17T22:44:47.254Z,21.37
2023-03-17T22:47:19.360Z,23.17
2023-03-17T22:49:48.908Z,20.50
2023-03-17T22:52:17.430Z,21.17
2023-03-17T22:55:15.236Z,21.83
2023-03-17T22:57:44.341Z,23.57
2023-03-17T23:00:18.219Z,27.23
2023-03-17T23:02:46.777Z,28.23
2023-03-17T23:05:15.329Z,25.50
2023-03-17T23:07:51.866Z,25.23
2023-03-17T23:10:23.601Z,23.63
2023-03-17T23:12:56.814Z,26.63
2023-03-17T23:15:28.667Z,28.47
2023-03-17T23:17:57.120Z,27.70
2023-03-17T23:20:25.862Z,29.50
2023-03-17T23:22:54.267Z,27.63
2023-03-17T23:25:23.215Z,29.43
2023-03-17T23:27:52.147Z,25.67
2023-03-17T23:30:21.562Z,27.57
2023-03-17T23:32:50.648Z,26.53
2023-03-17T23:35:20.032Z,20.87
2023-03-17T23:37:48.687Z,23.27
2023-03-17T23:40:17.575Z,22.33
2023-03-17T23:42:48.306Z,24.57
2023-03-17T23:45:19.157Z,22.27
2023-03-17T23:47:48.236Z,20.37
2023-03-17T23:50:21.850Z,20.37
2023-03-17T23:52:52.401Z,20.13
2023-03-17T23:55:20.548Z,20.40
2023-03-17T23:57:49.688Z,20.73
